createdAt,value
2023-10-07T00:00:41.631Z,6.50
2023-10-07T00:03:08.407Z,5.78
2023-10-07T00:05:40.590Z,5.97
2023-10-07T00:10:39.205Z,5.78
2023-10-07T00:13:10.991Z,6.05
2023-10-07T00:15:38.571Z,5.75
2023-10-07T00:18:14.493Z,5.78
2023-10-07T00:20:43.989Z,5.88
2023-10-07T00:23:10.878Z,5.35
2023-10-07T00:25:39.389Z,5.15
2023-10-07T00:28:19.026Z,6.03
2023-10-07T00:30:50.628Z,5.90
2023-10-07T00:33:22.751Z,5.25
2023-10-07T00:38:24.856Z,5.82
2023-10-07T00:40:57.137Z,6.07
2023-10-07T00:43:29.000Z,5.78
2023-10-07T00:46:12.286Z,5.85
2023-10-07T00:48:46.622Z,6.22
2023-10-07T00:51:14.499Z,5.40
2023-10-07T00:53:46.993Z,5.72
2023-10-07T00:56:17.537Z,6.03
2023-10-07T00:58:47.991Z,5.78
2023-10-07T01:01:15.860Z,6.15
2023-10-07T01:03:57.090Z,6.32
2023-10-07T01:06:27.381Z,6.13
2023-10-07T01:08:59.844Z,5.85
2023-10-07T01:11:31.105Z,6.00
2023-10-07T01:13:58.634Z,6.22
2023-10-07T01:16:28.395Z,5.53
2023-10-07T01:19:04.299Z,5.50
2023-10-07T01:21:34.628Z,6.38
2023-10-07T01:24:06.758Z,5.80
2023-10-07T01:29:16.870Z,5.63
2023-10-07T01:32:00.785Z,6.00
2023-10-07T01:34:31.490Z,6.43
2023-10-07T01:37:02.138Z,6.10
2023-10-07T01:39:41.834Z,6.10
2023-10-07T01:42:13.777Z,6.45
2023-10-07T01:44:42.209Z,6.38
2023-10-07T01:47:24.746Z,6.35
2023-10-07T01:49:55.116Z,6.25
2023-10-07T01:52:28.594Z,6.13
2023-10-07T01:54:56.561Z,6.57
2023-10-07T01:57:23.325Z,6.03
2023-10-07T01:59:50.849Z,5.78
2023-10-07T02:02:17.496Z,6.10
2023-10-07T02:04:44.187Z,6.45
2023-10-07T02:07:10.915Z,5.82
2023-10-07T02:09:42.056Z,5.97
2023-10-07T02:12:12.984Z,5.90
2023-10-07T02:14:40.311Z,6.30
2023-10-07T02:17:09.749Z,5.65
2023-10-07T02:19:36.780Z,6.22
2023-10-07T02:22:05.062Z,6.00
2023-10-07T02:24:33.428Z,6.72
2023-10-07T02:27:01.102Z,6.00
2023-10-07T02:29:29.438Z,6.20
2023-10-07T02:32:07.750Z,6.13
2023-10-07T02:34:35.200Z,6.47
2023-10-07T02:37:22.269Z,6.22
2023-10-07T02:39:52.685Z,6.65
2023-10-07T02:42:22.957Z,6.55
2023-10-07T02:45:01.874Z,6.55
2023-10-07T02:47:32.900Z,5.88
2023-10-07T02:50:02.829Z,6.50
2023-10-07T02:52:37.452Z,6.28
2023-10-07T02:55:28.670Z,6.03
2023-10-07T02:57:58.432Z,5.93
2023-10-07T03:00:53.062Z,5.80
2023-10-07T03:03:26.132Z,5.70
2023-10-07T03:06:10.917Z,5.93
2023-10-07T03:08:55.808Z,6.13
2023-10-07T03:11:22.748Z,6.60
2023-10-07T03:13:51.632Z,6.50
2023-10-07T03:16:21.995Z,6.57
2023-10-07T03:18:57.799Z,5.85
2023-10-07T03:21:36.649Z,6.30
2023-10-07T03:24:09.299Z,6.22
2023-10-07T03:26:36.173Z,6.10
2023-10-07T03:29:06.646Z,6.50
2023-10-07T03:31:41.226Z,6.13
2023-10-07T03:34:13.459Z,6.60
2023-10-07T03:39:23.536Z,6.22
2023-10-07T03:42:01.024Z,6.30
2023-10-07T03:44:29.219Z,5.97
2023-10-07T03:46:56.739Z,6.18
2023-10-07T03:49:24.632Z,6.18
2023-10-07T03:52:13.381Z,6.00
2023-10-07T03:54:43.995Z,6.22
2023-10-07T03:57:11.094Z,6.07
2023-10-07T03:59:38.685Z,5.80
2023-10-07T04:02:24.279Z,6.18
2023-10-07T04:05:01.290Z,6.70
2023-10-07T04:07:32.326Z,6.55
2023-10-07T04:10:25.359Z,6.43
2023-10-07T04:12:57.509Z,6.85
2023-10-07T04:15:30.572Z,6.55
2023-10-07T04:18:01.077Z,6.40
2023-10-07T04:20:48.137Z,6.70
2023-10-07T04:23:22.180Z,6.78
2023-10-07T04:25:48.958Z,6.30
2023-10-07T04:28:15.599Z,6.35
2023-10-07T04:30:48.494Z,6.60
2023-10-07T04:33:18.963Z,6.60
2023-10-07T04:35:50.776Z,6.30
2023-10-07T04:38:40.210Z,6.50
2023-10-07T04:41:22.720Z,6.28
2023-10-07T04:44:09.223Z,6.57
2023-10-07T04:46:44.196Z,5.53
2023-10-07T04:49:14.325Z,6.45
2023-10-07T04:51:44.620Z,6.05
2023-10-07T04:54:12.760Z,6.85
2023-10-07T04:56:41.068Z,6.32
2023-10-07T04:59:08.175Z,6.75
2023-10-07T05:01:35.884Z,6.18
2023-10-07T05:04:06.479Z,6.93
2023-10-07T05:06:37.106Z,6.10
2023-10-07T05:09:10.854Z,6.30
2023-10-07T05:11:45.039Z,5.80
2023-10-07T05:14:12.174Z,6.32
2023-10-07T05:16:39.611Z,5.72
2023-10-07T05:19:21.001Z,6.25
2023-10-07T05:22:00.167Z,6.10
2023-10-07T05:24:30.921Z,6.40
2023-10-07T05:27:01.293Z,6.68
2023-10-07T05:29:29.501Z,6.95
2023-10-07T05:31:57.807Z,6.55
2023-10-07T05:34:31.658Z,6.93
2023-10-07T05:37:04.957Z,6.63
2023-10-07T05:39:33.915Z,6.72
2023-10-07T05:42:04.522Z,6.70
2023-10-07T05:44:31.780Z,6.38
2023-10-07T05:47:00.431Z,6.93
2023-10-07T05:49:27.197Z,7.45
2023-10-07T05:51:54.416Z,7.45
2023-10-07T05:54:21.256Z,8.75
2023-10-07T05:56:50.717Z,8.70
2023-10-07T05:59:17.398Z,9.55
2023-10-07T06:01:44.383Z,9.40
2023-10-07T06:04:12.900Z,9.98
2023-10-07T06:06:43.368Z,8.90
2023-10-07T06:09:15.174Z,11.98
2023-10-07T06:11:45.836Z,10.88
2023-10-07T06:14:13.097Z,10.57
2023-10-07T06:16:41.237Z,11.25
2023-10-07T06:19:09.107Z,11.15
2023-10-07T06:21:35.917Z,10.73
2023-10-07T06:24:08.040Z,10.77
2023-10-07T06:26:36.551Z,10.93
2023-10-07T06:29:07.607Z,10.70
2023-10-07T06:31:34.831Z,9.97
2023-10-07T06:34:02.166Z,12.00
2023-10-07T06:36:33.407Z,11.00
2023-10-07T06:39:02.565Z,11.07
2023-10-07T06:41:30.997Z,11.38
2023-10-07T06:44:05.550Z,11.93
2023-10-07T06:46:42.184Z,10.48
2023-10-07T06:49:18.297Z,10.70
2023-10-07T06:51:46.613Z,10.63
2023-10-07T06:54:15.354Z,9.20
2023-10-07T06:56:42.031Z,9.27
2023-10-07T06:59:14.178Z,9.98
2023-10-07T07:04:12.781Z,8.38
2023-10-07T07:06:46.575Z,8.43
2023-10-07T07:09:36.122Z,8.15
2023-10-07T07:12:05.785Z,8.52
2023-10-07T07:14:34.781Z,8.90
2023-10-07T07:17:35.178Z,9.43
2023-10-07T07:20:12.367Z,9.45
2023-10-07T07:22:44.414Z,7.88
2023-10-07T07:25:27.884Z,8.50
2023-10-07T07:27:54.621Z,9.68
2023-10-07T07:30:40.489Z,8.48
2023-10-07T07:33:09.081Z,9.23
2023-10-07T07:35:41.207Z,9.43
2023-10-07T07:38:26.880Z,8.13
2023-10-07T07:41:07.168Z,8.77
2023-10-07T07:43:35.505Z,8.13
2023-10-07T07:46:19.378Z,8.00
2023-10-07T07:48:46.949Z,7.90
2023-10-07T07:51:18.032Z,8.10
2023-10-07T07:53:45.445Z,8.00
2023-10-07T07:56:14.901Z,8.93
2023-10-07T07:58:51.004Z,7.55
2023-10-07T08:01:29.949Z,7.72
2023-10-07T08:04:00.593Z,7.82
2023-10-07T08:06:27.611Z,8.15
2023-10-07T08:08:55.149Z,7.30
2023-10-07T08:11:22.571Z,7.68
2023-10-07T08:13:54.391Z,8.32
2023-10-07T08:16:21.566Z,8.07
2023-10-07T08:18:55.577Z,7.13
2023-10-07T08:21:29.803Z,7.22
2023-10-07T08:24:02.530Z,6.30
2023-10-07T08:26:29.921Z,6.70
2023-10-07T08:28:59.394Z,6.25
2023-10-07T08:31:39.714Z,5.30
2023-10-07T08:34:10.734Z,5.80
2023-10-07T08:36:40.166Z,5.85
2023-10-07T08:39:07.587Z,5.80
2023-10-07T08:41:34.343Z,6.13
2023-10-07T08:44:17.075Z,6.20
2023-10-07T08:46:55.486Z,5.70
2023-10-07T08:49:27.284Z,5.43
2023-10-07T08:51:55.878Z,5.57
2023-10-07T08:54:33.175Z,5.63
2023-10-07T08:57:10.188Z,6.10
2023-10-07T08:59:39.143Z,5.38
2023-10-07T09:02:05.895Z,5.47
2023-10-07T09:04:33.208Z,5.18
2023-10-07T09:07:10.156Z,5.65
2023-10-07T09:09:40.671Z,5.55
2023-10-07T09:12:29.671Z,5.38
2023-10-07T09:14:59.230Z,5.35
2023-10-07T09:17:29.224Z,5.45
2023-10-07T09:19:59.941Z,5.35
2023-10-07T09:22:35.685Z,5.07
2023-10-07T09:25:18.478Z,5.07
2023-10-07T09:27:55.832Z,5.28
2023-10-07T09:30:45.780Z,5.30
2023-10-07T09:33:18.866Z,5.10
2023-10-07T09:36:11.250Z,5.40
2023-10-07T09:38:43.090Z,5.47
2023-10-07T09:41:13.970Z,5.32
2023-10-07T09:43:53.320Z,5.03
2023-10-07T09:48:58.671Z,5.38
2023-10-07T09:51:29.635Z,5.30
2023-10-07T09:54:03.728Z,5.05
2023-10-07T09:57:01.088Z,5.03
2023-10-07T09:59:33.342Z,4.53
2023-10-07T10:02:27.206Z,4.68
2023-10-07T10:05:16.084Z,4.95
2023-10-07T10:08:14.621Z,4.35
2023-10-07T10:10:46.055Z,4.90
2023-10-07T10:13:53.412Z,4.97
2023-10-07T10:16:45.463Z,4.28
2023-10-07T10:19:19.172Z,4.75
2023-10-07T10:21:45.938Z,4.90
2023-10-07T10:24:16.666Z,4.13
2023-10-07T10:26:45.506Z,4.43
2023-10-07T10:29:18.350Z,4.55
2023-10-07T10:31:52.246Z,4.55
2023-10-07T10:34:21.493Z,4.40
2023-10-07T10:36:51.002Z,4.43
2023-10-07T10:39:40.323Z,4.00
2023-10-07T10:42:11.524Z,4.00
2023-10-07T10:44:39.623Z,4.20
2023-10-07T10:47:09.094Z,4.13
2023-10-07T10:49:36.414Z,4.00
2023-10-07T10:52:03.966Z,4.40
2023-10-07T10:54:30.837Z,4.10
2023-10-07T10:56:59.449Z,3.90
2023-10-07T10:59:38.197Z,4.15
2023-10-07T11:02:06.520Z,4.00
2023-10-07T11:04:33.408Z,3.97
2023-10-07T11:07:01.208Z,3.92
2023-10-07T11:09:36.978Z,4.20
2023-10-07T11:12:11.217Z,4.13
2023-10-07T11:14:39.679Z,3.67
2023-10-07T11:17:07.199Z,3.53
2023-10-07T11:19:41.642Z,3.83
2023-10-07T11:22:08.405Z,3.30
2023-10-07T11:24:36.380Z,3.83
2023-10-07T11:27:03.984Z,3.13
2023-10-07T11:29:33.709Z,3.60
2023-10-07T11:32:02.260Z,3.78
2023-10-07T11:34:34.368Z,3.45
2023-10-07T11:37:10.253Z,3.80
2023-10-07T11:39:44.327Z,3.53
2023-10-07T11:42:16.361Z,3.35
2023-10-07T11:44:47.317Z,3.90
2023-10-07T11:47:17.769Z,3.50
2023-10-07T11:49:48.380Z,4.18
2023-10-07T11:52:18.976Z,3.72
2023-10-07T11:54:49.729Z,3.50
2023-10-07T11:57:21.282Z,3.80
2023-10-07T11:59:47.909Z,3.25
2023-10-07T12:02:16.602Z,4.18
2023-10-07T12:04:48.716Z,3.20
2023-10-07T12:07:17.508Z,3.63
2023-10-07T12:09:52.222Z,3.65
2023-10-07T12:12:19.125Z,3.63
2023-10-07T12:14:47.463Z,3.33
2023-10-07T12:17:15.755Z,3.63
2023-10-07T12:19:42.584Z,3.60
2023-10-07T12:22:09.855Z,3.30
2023-10-07T12:24:38.564Z,3.40
2023-10-07T12:27:07.884Z,3.20
2023-10-07T12:29:35.154Z,3.30
2023-10-07T12:32:02.016Z,3.42
2023-10-07T12:34:31.395Z,3.70
2023-10-07T12:36:58.036Z,3.50
2023-10-07T12:39:24.737Z,3.10
2023-10-07T12:41:51.355Z,3.70
2023-10-07T12:44:18.210Z,3.38
2023-10-07T12:46:45.421Z,3.63
2023-10-07T12:49:15.299Z,3.55
2023-10-07T12:51:43.798Z,3.17
2023-10-07T12:54:11.372Z,3.78
2023-10-07T12:56:49.271Z,3.83
2023-10-07T12:59:19.508Z,3.50
2023-10-07T13:01:51.848Z,3.70
2023-10-07T13:04:20.668Z,3.83
2023-10-07T13:06:49.963Z,3.42
2023-10-07T13:09:19.208Z,3.72
2023-10-07T13:11:46.977Z,3.92
2023-10-07T13:14:14.195Z,4.22
2023-10-07T13:16:46.609Z,3.78
2023-10-07T13:19:15.166Z,3.90
2023-10-07T13:21:42.927Z,3.95
2023-10-07T13:24:12.835Z,3.83
2023-10-07T13:26:39.977Z,3.78
2023-10-07T13:29:11.658Z,3.70
2023-10-07T13:31:41.822Z,4.20
2023-10-07T13:34:08.763Z,3.70
2023-10-07T13:36:40.170Z,3.97
2023-10-07T13:39:16.645Z,3.72
2023-10-07T13:41:48.190Z,3.53
2023-10-07T13:44:18.329Z,3.67
2023-10-07T13:46:46.586Z,3.58
2023-10-07T13:49:16.898Z,4.00
2023-10-07T13:51:45.812Z,3.58
2023-10-07T13:54:23.443Z,3.28
2023-10-07T13:56:58.577Z,3.60
2023-10-07T13:59:26.092Z,3.63
2023-10-07T14:01:53.901Z,3.72
2023-10-07T14:04:21.230Z,3.80
2023-10-07T14:06:49.025Z,4.00
2023-10-07T14:09:25.480Z,3.65
2023-10-07T14:11:58.281Z,3.45
2023-10-07T14:14:28.650Z,3.83
2023-10-07T14:16:59.701Z,3.60
2023-10-07T14:19:28.182Z,3.35
2023-10-07T14:21:54.868Z,3.92
2023-10-07T14:24:29.210Z,3.53
2023-10-07T14:26:57.440Z,3.63
2023-10-07T14:29:24.290Z,3.85
2023-10-07T14:31:53.145Z,4.07
2023-10-07T14:34:19.931Z,4.35
2023-10-07T14:36:47.087Z,4.15
2023-10-07T14:39:14.213Z,4.07
2023-10-07T14:41:42.746Z,3.72
2023-10-07T14:44:10.225Z,4.10
2023-10-07T14:46:43.626Z,5.28
2023-10-07T14:49:11.578Z,4.10
2023-10-07T14:51:38.624Z,3.78
2023-10-07T14:54:05.559Z,4.03
2023-10-07T14:56:32.243Z,3.70
2023-10-07T14:59:00.962Z,4.10
2023-10-07T15:01:28.948Z,4.70
2023-10-07T15:03:56.415Z,5.53
2023-10-07T15:06:23.814Z,4.50
2023-10-07T15:08:51.438Z,4.00
2023-10-07T15:11:19.744Z,4.00
2023-10-07T15:13:47.100Z,3.70
2023-10-07T15:16:14.040Z,4.00
2023-10-07T15:18:42.533Z,3.38
2023-10-07T15:21:12.917Z,3.78
2023-10-07T15:23:40.553Z,4.47
2023-10-07T15:26:14.063Z,4.22
2023-10-07T15:28:40.978Z,4.25
2023-10-07T15:31:09.405Z,4.07
2023-10-07T15:33:53.758Z,3.90
2023-10-07T15:36:20.467Z,4.20
2023-10-07T15:38:50.159Z,4.50
2023-10-07T15:41:17.735Z,4.13
2023-10-07T15:43:44.621Z,4.20
2023-10-07T15:46:11.455Z,3.95
2023-10-07T15:48:38.160Z,4.00
2023-10-07T15:51:07.606Z,4.00
2023-10-07T15:53:34.810Z,4.32
2023-10-07T15:56:07.795Z,4.97
2023-10-07T15:58:35.137Z,4.82
2023-10-07T16:01:04.685Z,4.10
2023-10-07T16:03:34.348Z,4.05
2023-10-07T16:06:01.456Z,4.03
2023-10-07T16:08:28.308Z,3.92
2023-10-07T16:10:55.054Z,4.28
2023-10-07T16:13:21.806Z,4.18
2023-10-07T16:15:48.453Z,4.43
2023-10-07T16:18:15.141Z,4.60
2023-10-07T16:20:42.573Z,5.40
2023-10-07T16:23:09.923Z,4.93
2023-10-07T16:25:36.622Z,5.25
2023-10-07T16:28:06.012Z,4.57
2023-10-07T16:30:32.847Z,4.55
2023-10-07T16:32:59.574Z,5.15
2023-10-07T16:35:26.314Z,5.07
2023-10-07T16:37:53.212Z,5.63
2023-10-07T16:40:20.155Z,5.57
2023-10-07T16:42:47.166Z,4.57
2023-10-07T16:45:14.216Z,4.57
2023-10-07T16:47:41.370Z,4.97
2023-10-07T16:50:10.127Z,5.25
2023-10-07T16:52:37.761Z,5.15
2023-10-07T16:55:07.673Z,4.70
2023-10-07T16:57:38.290Z,5.68
2023-10-07T17:00:06.775Z,6.57
2023-10-07T17:02:34.558Z,5.75
2023-10-07T17:05:02.653Z,7.60
2023-10-07T17:07:29.393Z,6.93
2023-10-07T17:09:56.984Z,5.28
2023-10-07T17:12:24.987Z,4.65
2023-10-07T17:14:51.767Z,7.07
2023-10-07T17:17:18.666Z,9.02
2023-10-07T17:19:45.435Z,7.65
2023-10-07T17:22:12.945Z,6.82
2023-10-07T17:24:43.943Z,6.95
2023-10-07T17:27:11.820Z,7.75
2023-10-07T17:29:40.157Z,6.43
2023-10-07T17:32:07.322Z,5.88
2023-10-07T17:34:34.449Z,5.88
2023-10-07T17:37:02.523Z,5.22
2023-10-07T17:39:33.107Z,5.70
2023-10-07T17:42:01.899Z,5.50
2023-10-07T17:44:28.791Z,5.70
2023-10-07T17:46:56.952Z,5.57
2023-10-07T17:49:24.289Z,6.05
2023-10-07T17:51:50.961Z,6.85
2023-10-07T17:54:17.721Z,6.68
2023-10-07T17:56:45.389Z,7.38
2023-10-07T17:59:12.918Z,8.40
2023-10-07T18:01:39.833Z,7.35
2023-10-07T18:04:06.822Z,6.78
2023-10-07T18:06:33.591Z,5.72
2023-10-07T18:09:00.255Z,6.05
2023-10-07T18:11:27.035Z,6.05
2023-10-07T18:13:53.764Z,5.30
2023-10-07T18:16:20.614Z,5.57
2023-10-07T18:18:47.280Z,5.25
2023-10-07T18:21:13.867Z,5.57
2023-10-07T18:23:40.655Z,5.63
2023-10-07T18:26:07.576Z,5.70
2023-10-07T18:28:34.250Z,5.45
2023-10-07T18:31:02.462Z,5.93
2023-10-07T18:33:30.039Z,6.00
2023-10-07T18:35:57.742Z,6.20
2023-10-07T18:38:24.458Z,6.35
2023-10-07T18:40:52.358Z,6.32
2023-10-07T18:43:19.286Z,5.97
2023-10-07T18:45:45.898Z,5.85
2023-10-07T18:48:13.212Z,6.38
2023-10-07T18:50:40.117Z,6.70
2023-10-07T18:53:06.943Z,6.60
2023-10-07T18:55:34.031Z,6.28
2023-10-07T18:58:08.951Z,5.53
2023-10-07T19:00:36.363Z,5.85
2023-10-07T19:03:03.215Z,5.72
2023-10-07T19:05:30.481Z,6.60
2023-10-07T19:07:57.517Z,5.53
2023-10-07T19:10:26.445Z,6.53
2023-10-07T19:12:53.171Z,6.15
2023-10-07T19:15:19.859Z,6.50
2023-10-07T19:17:47.801Z,6.07
2023-10-07T19:20:15.038Z,6.40
2023-10-07T19:22:43.051Z,7.63
2023-10-07T19:25:15.319Z,6.93
2023-10-07T19:30:11.465Z,7.45
2023-10-07T19:32:42.482Z,7.70
2023-10-07T19:35:10.083Z,7.22
2023-10-07T19:37:36.945Z,8.20
2023-10-07T19:40:05.422Z,7.93
2023-10-07T19:42:32.173Z,7.72
2023-10-07T19:44:58.869Z,7.65
2023-10-07T19:47:25.709Z,8.15
2023-10-07T19:49:52.757Z,7.35
2023-10-07T19:52:19.419Z,7.78
2023-10-07T19:54:46.093Z,7.50
2023-10-07T19:57:13.457Z,8.82
2023-10-07T19:59:40.263Z,7.70
2023-10-07T20:02:07.094Z,6.68
2023-10-07T20:04:33.887Z,6.65
2023-10-07T20:07:00.613Z,6.38
2023-10-07T20:09:27.340Z,5.28
2023-10-07T20:11:54.035Z,4.90
2023-10-07T20:14:20.705Z,4.93
2023-10-07T20:16:47.489Z,5.70
2023-10-07T20:19:15.338Z,4.68
2023-10-07T20:21:42.601Z,6.03
2023-10-07T20:24:10.064Z,5.63
2023-10-07T20:26:38.616Z,6.63
2023-10-07T20:29:05.395Z,6.68
2023-10-07T20:31:32.057Z,6.97
2023-10-07T20:33:58.672Z,6.85
2023-10-07T20:36:25.300Z,7.53
2023-10-07T20:38:54.801Z,5.78
2023-10-07T20:41:21.706Z,5.85
2023-10-07T20:43:48.284Z,5.55
2023-10-07T20:46:15.135Z,5.70
2023-10-07T20:48:42.255Z,6.18
2023-10-07T20:51:11.700Z,6.20
2023-10-07T20:53:40.671Z,5.35
2023-10-07T20:56:09.021Z,5.50
2023-10-07T20:58:36.198Z,5.72
2023-10-07T21:01:07.007Z,5.90
2023-10-07T21:03:33.999Z,6.18
2023-10-07T21:06:03.387Z,6.47
2023-10-07T21:08:30.380Z,5.20
2023-10-07T21:10:57.121Z,4.78
2023-10-07T21:13:23.747Z,5.00
2023-10-07T21:15:50.441Z,5.22
2023-10-07T21:18:17.100Z,5.22
2023-10-07T21:20:44.638Z,5.65
2023-10-07T21:23:14.967Z,5.13
2023-10-07T21:25:47.094Z,6.40
2023-10-07T21:28:15.790Z,5.97
2023-10-07T21:30:49.812Z,6.20
2023-10-07T21:33:17.887Z,5.53
2023-10-07T21:35:45.654Z,5.93
2023-10-07T21:38:13.840Z,5.80
2023-10-07T21:40:42.924Z,6.45
2023-10-07T21:43:11.144Z,6.57
2023-10-07T21:45:38.393Z,6.03
2023-10-07T21:48:06.527Z,5.68
2023-10-07T21:50:34.793Z,5.63
2023-10-07T21:53:05.512Z,6.07
2023-10-07T21:55:34.070Z,5.82
2023-10-07T21:58:02.005Z,6.57
2023-10-07T22:00:28.848Z,6.30
2023-10-07T22:02:56.968Z,6.05
2023-10-07T22:05:26.974Z,5.78
2023-10-07T22:07:54.811Z,6.05
2023-10-07T22:10:33.053Z,6.05
2023-10-07T22:13:01.622Z,6.30
2023-10-07T22:15:28.319Z,5.82
2023-10-07T22:17:57.279Z,5.95
2023-10-07T22:20:24.220Z,6.60
2023-10-07T22:22:52.611Z,6.35
2023-10-07T22:25:19.611Z,6.40
2023-10-07T22:27:47.831Z,6.07
2023-10-07T22:30:18.749Z,6.18
2023-10-07T22:32:46.860Z,6.00
2023-10-07T22:35:23.696Z,6.25
2023-10-07T22:37:59.021Z,5.53
2023-10-07T22:40:32.993Z,5.95
2023-10-07T22:43:00.347Z,6.47
2023-10-07T22:45:51.143Z,6.32
2023-10-07T22:48:20.641Z,5.95
2023-10-07T22:51:10.364Z,5.72
2023-10-07T22:53:45.488Z,6.47
2023-10-07T22:56:20.914Z,6.50
2023-10-07T22:58:49.586Z,6.68
2023-10-07T23:01:40.852Z,6.72
2023-10-07T23:04:22.839Z,6.82
2023-10-07T23:06:57.442Z,6.70
2023-10-07T23:09:30.292Z,6.75
2023-10-07T23:11:57.037Z,6.93
2023-10-07T23:14:23.990Z,7.05
2023-10-07T23:16:53.113Z,6.75
2023-10-07T23:19:19.947Z,5.85
2023-10-07T23:22:01.096Z,6.82
2023-10-07T23:24:39.892Z,6.72
2023-10-07T23:27:09.225Z,6.90
2023-10-07T23:29:45.433Z,6.80
2023-10-07T23:32:20.013Z,6.93
2023-10-07T23:34:46.804Z,7.15
2023-10-07T23:37:17.682Z,7.22
2023-10-07T23:39:49.506Z,7.00
2023-10-07T23:42:23.833Z,6.90
2023-10-07T23:44:54.296Z,6.38
2023-10-07T23:47:24.076Z,6.38
2023-10-07T23:49:58.765Z,7.15
2023-10-07T23:52:27.200Z,6.93
2023-10-07T23:54:59.441Z,6.63
2023-10-07T23:59:58.779Z,6.47
